createdAt,value
2022-08-29T00:03:59.675Z,3.00
2022-08-29T00:08:02.894Z,3.03
2022-08-29T00:12:06.018Z,3.08
2022-08-29T00:16:08.973Z,3.78
2022-08-29T00:20:14.195Z,3.50
2022-08-29T00:24:17.217Z,3.13
2022-08-29T00:28:19.646Z,3.63
2022-08-29T00:32:21.723Z,3.60
2022-08-29T00:36:25.231Z,3.72
2022-08-29T00:40:31.999Z,3.53
2022-08-29T00:44:35.871Z,3.50
2022-08-29T00:48:40.047Z,3.53
2022-08-29T00:52:47.005Z,3.60
2022-08-29T00:56:49.945Z,3.63
2022-08-29T01:00:53.939Z,3.55
2022-08-29T01:04:57.982Z,3.70
2022-08-29T01:09:00.339Z,3.30
2022-08-29T01:13:05.088Z,4.07
2022-08-29T01:17:10.207Z,4.32
2022-08-29T01:21:22.265Z,3.97
2022-08-29T01:25:29.055Z,4.22
2022-08-29T01:29:31.228Z,3.60
2022-08-29T01:33:45.239Z,3.60
2022-08-29T01:37:47.490Z,3.95
2022-08-29T01:41:50.310Z,4.22
2022-08-29T01:45:53.107Z,4.63
2022-08-29T01:49:55.805Z,4.60
2022-08-29T01:53:58.146Z,4.45
2022-08-29T01:58:00.245Z,4.40
2022-08-29T02:02:18.343Z,4.60
2022-08-29T02:06:21.463Z,4.65
2022-08-29T02:10:26.059Z,4.90
2022-08-29T02:14:28.468Z,3.97
2022-08-29T02:18:31.449Z,4.30
2022-08-29T02:22:33.548Z,4.07
2022-08-29T02:26:37.718Z,4.10
2022-08-29T02:30:45.186Z,4.45
2022-08-29T02:34:51.783Z,3.90
2022-08-29T02:38:53.755Z,4.65
2022-08-29T02:42:56.279Z,4.13
2022-08-29T02:46:58.329Z,4.13
2022-08-29T02:51:00.497Z,4.20
2022-08-29T02:55:02.764Z,3.70
2022-08-29T02:59:05.813Z,4.18
2022-08-29T03:03:08.202Z,4.25
2022-08-29T03:07:10.963Z,4.65
2022-08-29T03:11:13.887Z,4.63
2022-08-29T03:15:18.307Z,4.55
2022-08-29T03:19:20.380Z,3.92
2022-08-29T03:23:22.418Z,5.50
2022-08-29T03:27:24.637Z,4.43
2022-08-29T03:31:27.257Z,5.45
2022-08-29T03:35:29.531Z,4.88
2022-08-29T03:39:31.938Z,5.22
2022-08-29T03:43:34.709Z,5.10
2022-08-29T03:47:36.813Z,5.70
2022-08-29T03:51:39.801Z,4.95
2022-08-29T03:55:42.164Z,5.32
2022-08-29T03:59:44.444Z,4.70
2022-08-29T04:03:46.511Z,4.82
2022-08-29T04:07:49.729Z,4.45
2022-08-29T04:11:52.311Z,4.32
2022-08-29T04:15:54.681Z,4.32
2022-08-29T04:19:57.014Z,4.28
2022-08-29T04:23:59.375Z,4.30
2022-08-29T04:28:01.842Z,4.88
2022-08-29T04:32:04.466Z,4.65
2022-08-29T04:36:09.944Z,4.13
2022-08-29T04:40:17.913Z,4.25
2022-08-29T04:44:20.066Z,5.00
2022-08-29T04:48:22.669Z,4.60
2022-08-29T04:52:27.847Z,4.70
2022-08-29T04:56:29.985Z,4.75
2022-08-29T05:00:32.267Z,5.30
2022-08-29T05:04:34.476Z,5.93
2022-08-29T05:08:38.411Z,5.05
2022-08-29T05:12:41.950Z,6.10
2022-08-29T05:16:44.785Z,5.53
2022-08-29T05:20:49.707Z,6.15
2022-08-29T05:25:00.521Z,5.82
2022-08-29T05:29:08.655Z,5.22
2022-08-29T05:33:11.156Z,5.65
2022-08-29T05:37:16.197Z,5.28
2022-08-29T05:41:19.208Z,5.25
2022-08-29T05:45:21.559Z,4.75
2022-08-29T05:49:23.727Z,5.05
2022-08-29T05:53:28.175Z,4.70
2022-08-29T05:57:31.115Z,4.32
2022-08-29T06:01:34.193Z,4.60
2022-08-29T06:05:37.521Z,4.68
2022-08-29T06:09:41.320Z,4.22
2022-08-29T06:13:43.949Z,4.43
2022-08-29T06:17:48.951Z,3.33
2022-08-29T06:21:54.662Z,2.90
2022-08-29T06:26:00.195Z,2.60
2022-08-29T06:30:02.496Z,2.55
2022-08-29T06:34:07.038Z,2.67
2022-08-29T06:38:13.746Z,2.20
2022-08-29T06:42:18.919Z,2.03
2022-08-29T06:46:26.017Z,1.90
2022-08-29T06:50:28.551Z,1.92
2022-08-29T06:54:30.861Z,1.55
2022-08-29T06:58:41.884Z,1.73
2022-08-29T07:02:52.797Z,1.60
2022-08-29T07:06:55.271Z,2.28
2022-08-29T07:10:57.530Z,2.67
2022-08-29T07:14:59.840Z,2.60
2022-08-29T07:19:04.842Z,1.95
2022-08-29T07:23:08.103Z,1.60
2022-08-29T07:27:14.370Z,1.83
2022-08-29T07:31:18.683Z,1.67
2022-08-29T07:35:30.006Z,1.73
2022-08-29T07:39:32.931Z,1.67
2022-08-29T07:43:35.851Z,1.63
2022-08-29T07:47:39.132Z,1.83
2022-08-29T07:51:44.504Z,1.30
2022-08-29T07:55:46.931Z,1.25
2022-08-29T07:59:49.398Z,1.30
2022-08-29T08:03:52.843Z,1.52
2022-08-29T08:07:55.585Z,1.40
2022-08-29T08:11:58.966Z,1.35
2022-08-29T08:16:05.860Z,1.40
2022-08-29T08:20:08.895Z,1.70
2022-08-29T08:24:13.192Z,1.50
2022-08-29T08:28:18.879Z,1.70
2022-08-29T08:32:21.412Z,1.58
2022-08-29T08:36:30.808Z,1.65
2022-08-29T08:40:33.345Z,1.50
2022-08-29T08:44:49.589Z,1.80
2022-08-29T08:48:57.083Z,1.35
2022-08-29T08:53:11.323Z,1.38
2022-08-29T08:57:14.339Z,1.48
2022-08-29T09:01:21.833Z,1.43
2022-08-29T09:05:29.951Z,1.67
2022-08-29T09:10:13.095Z,1.40
2022-08-29T09:15:07.443Z,1.52
2022-08-29T09:19:17.212Z,1.80
2022-08-29T09:23:27.394Z,1.35
2022-08-29T09:27:32.643Z,1.80
2022-08-29T09:31:36.168Z,1.35
2022-08-29T09:40:03.173Z,1.60
2022-08-29T09:44:05.557Z,1.70
2022-08-29T09:48:17.712Z,1.85
2022-08-29T09:52:25.538Z,1.85
2022-08-29T09:56:28.408Z,1.60
2022-08-29T10:00:44.116Z,2.00
2022-08-29T10:04:53.474Z,1.30
2022-08-29T10:09:09.715Z,1.90
2022-08-29T10:13:22.242Z,1.90
2022-08-29T10:18:07.603Z,1.52
2022-08-29T10:26:53.114Z,1.60
2022-08-29T10:31:02.613Z,1.70
2022-08-29T10:35:20.788Z,1.38
2022-08-29T10:39:44.300Z,1.40
2022-08-29T10:43:50.701Z,1.70
2022-08-29T10:48:03.172Z,1.45
2022-08-29T10:52:29.430Z,1.20
2022-08-29T10:56:47.263Z,1.77
2022-08-29T11:01:08.299Z,1.55
2022-08-29T11:05:27.609Z,1.63
2022-08-29T11:09:54.718Z,1.30
2022-08-29T11:14:06.182Z,1.63
2022-08-29T11:18:29.328Z,1.27
2022-08-29T11:22:44.329Z,1.50
2022-08-29T11:27:07.149Z,1.30
2022-08-29T11:31:54.503Z,1.25
2022-08-29T11:36:46.432Z,1.38
2022-08-29T11:41:30.495Z,1.27
2022-08-29T11:45:45.324Z,1.30
2022-08-29T11:50:00.772Z,1.40
2022-08-29T11:54:35.317Z,1.27
2022-08-29T11:58:56.508Z,1.20
2022-08-29T12:03:40.101Z,1.10
2022-08-29T12:08:33.625Z,1.23
2022-08-29T12:12:52.904Z,1.17
2022-08-29T12:17:12.261Z,1.10
2022-08-29T12:21:47.310Z,0.95
2022-08-29T12:26:21.513Z,1.27
2022-08-29T12:30:43.004Z,2.08
2022-08-29T12:35:18.568Z,1.50
2022-08-29T12:39:57.730Z,1.20
2022-08-29T12:44:13.252Z,1.55
2022-08-29T12:48:30.401Z,1.50
2022-08-29T12:52:41.583Z,1.30
2022-08-29T12:56:58.737Z,1.33
2022-08-29T13:01:05.154Z,1.38
2022-08-29T13:05:29.101Z,1.27
2022-08-29T13:09:39.675Z,1.25
2022-08-29T13:13:41.797Z,1.45
2022-08-29T13:17:47.235Z,1.33
2022-08-29T13:21:49.355Z,1.25
2022-08-29T13:25:56.638Z,1.02
2022-08-29T13:30:02.101Z,1.10
2022-08-29T13:34:19.547Z,1.13
2022-08-29T13:38:30.321Z,0.93
2022-08-29T13:42:33.116Z,1.42
2022-08-29T13:46:38.159Z,1.08
2022-08-29T13:50:40.995Z,1.10
2022-08-29T13:54:56.755Z,1.25
2022-08-29T13:59:05.182Z,1.30
2022-08-29T14:03:19.049Z,1.10
2022-08-29T14:07:38.470Z,1.27
2022-08-29T14:11:51.270Z,1.10
2022-08-29T14:16:09.646Z,1.35
2022-08-29T14:20:35.637Z,1.40
2022-08-29T14:24:43.833Z,1.00
2022-08-29T14:29:03.386Z,1.30
2022-08-29T14:33:20.351Z,1.45
2022-08-29T14:37:35.497Z,1.10
2022-08-29T14:41:49.188Z,1.40
2022-08-29T14:45:57.216Z,1.15
2022-08-29T14:50:02.367Z,1.55
2022-08-29T14:54:04.913Z,1.20
2022-08-29T14:58:07.063Z,1.20
2022-08-29T15:02:10.260Z,1.13
2022-08-29T15:10:18.503Z,1.10
2022-08-29T15:14:20.815Z,1.27
2022-08-29T15:19:07.186Z,1.10
2022-08-29T15:22:47.195Z,1.10
2022-08-29T15:26:49.439Z,1.00
2022-08-29T15:30:51.656Z,1.17
2022-08-29T15:34:53.759Z,1.30
2022-08-29T15:38:55.959Z,1.00
2022-08-29T15:42:58.227Z,1.10
2022-08-29T15:47:01.475Z,1.13
2022-08-29T15:51:04.205Z,1.15
2022-08-29T15:55:10.875Z,1.10
2022-08-29T15:59:15.763Z,1.10
2022-08-29T16:03:18.008Z,0.93
2022-08-29T16:07:20.025Z,1.20
2022-08-29T16:11:22.211Z,1.20
2022-08-29T16:15:24.665Z,1.23
2022-08-29T16:19:27.062Z,1.50
2022-08-29T16:23:29.581Z,1.15
2022-08-29T16:27:32.193Z,1.10
2022-08-29T16:31:35.491Z,1.17
2022-08-29T16:35:37.631Z,1.30
2022-08-29T16:39:41.155Z,1.20
2022-08-29T16:43:50.391Z,1.40
2022-08-29T16:47:57.551Z,1.10
2022-08-29T16:52:00.983Z,1.33
2022-08-29T16:56:06.253Z,0.98
2022-08-29T17:00:11.703Z,1.23
2022-08-29T17:04:19.018Z,1.25
2022-08-29T17:08:21.181Z,1.10
2022-08-29T17:12:23.200Z,1.30
2022-08-29T17:16:26.703Z,1.35
2022-08-29T17:20:28.896Z,1.30
2022-08-29T17:24:32.419Z,1.33
2022-08-29T17:28:36.002Z,1.13
2022-08-29T17:32:38.680Z,1.10
2022-08-29T17:36:43.679Z,1.30
2022-08-29T17:40:46.440Z,1.15
2022-08-29T17:44:50.276Z,1.08
2022-08-29T17:48:52.574Z,1.00
2022-08-29T17:52:56.933Z,1.40
2022-08-29T17:57:01.954Z,1.30
2022-08-29T18:01:04.177Z,1.30
2022-08-29T18:05:10.132Z,1.60
2022-08-29T18:09:12.560Z,1.42
2022-08-29T18:13:21.821Z,1.43
2022-08-29T18:17:33.068Z,1.20
2022-08-29T18:21:39.431Z,1.40
2022-08-29T18:25:53.942Z,1.98
2022-08-29T18:30:08.615Z,1.63
2022-08-29T18:34:20.716Z,1.63
2022-08-29T18:38:32.821Z,1.77
2022-08-29T18:42:44.492Z,1.75
2022-08-29T18:46:50.867Z,2.22
2022-08-29T18:51:01.485Z,1.50
2022-08-29T18:55:15.786Z,1.40
2022-08-29T18:59:25.575Z,1.63
2022-08-29T19:03:36.659Z,1.80
2022-08-29T19:07:46.173Z,1.80
2022-08-29T19:11:56.291Z,1.90
2022-08-29T19:16:11.540Z,2.15
2022-08-29T19:20:45.012Z,1.98
2022-08-29T19:24:56.093Z,1.70
2022-08-29T19:29:16.060Z,1.77
2022-08-29T19:33:27.998Z,1.77
2022-08-29T19:37:38.643Z,1.65
2022-08-29T19:41:42.063Z,1.80
2022-08-29T19:45:45.919Z,2.10
2022-08-29T19:49:49.541Z,2.10
2022-08-29T19:53:52.025Z,2.15
2022-08-29T19:58:02.670Z,2.17
2022-08-29T20:02:12.318Z,1.90
2022-08-29T20:06:29.799Z,2.20
2022-08-29T20:10:39.061Z,2.38
2022-08-29T20:14:53.120Z,3.40
2022-08-29T20:19:06.068Z,2.40
2022-08-29T20:23:16.701Z,2.35
2022-08-29T20:27:25.222Z,2.00
2022-08-29T20:31:34.492Z,2.28
2022-08-29T20:35:55.343Z,2.33
2022-08-29T20:39:58.672Z,2.92
2022-08-29T20:44:06.963Z,2.20
2022-08-29T20:48:10.741Z,1.88
2022-08-29T20:52:17.731Z,2.20
2022-08-29T20:56:19.861Z,2.00
2022-08-29T21:00:22.639Z,1.95
2022-08-29T21:04:46.432Z,2.20
2022-08-29T21:08:49.682Z,2.28
2022-08-29T21:12:51.751Z,2.28
2022-08-29T21:16:56.801Z,2.35
2022-08-29T21:20:58.918Z,2.17
2022-08-29T21:25:01.197Z,2.17
2022-08-29T21:29:05.515Z,1.90
2022-08-29T21:33:07.643Z,1.85
2022-08-29T21:37:09.769Z,1.70
2022-08-29T21:41:12.922Z,2.38
2022-08-29T21:45:15.292Z,1.97
2022-08-29T21:49:19.389Z,2.20
2022-08-29T21:53:23.343Z,2.33
2022-08-29T21:57:43.866Z,2.33
2022-08-29T22:01:48.988Z,2.00
2022-08-29T22:05:56.868Z,2.10
2022-08-29T22:09:59.577Z,2.13
2022-08-29T22:14:02.263Z,2.08
2022-08-29T22:18:05.251Z,2.85
2022-08-29T22:22:07.429Z,2.40
2022-08-29T22:26:09.738Z,2.50
2022-08-29T22:30:13.120Z,2.63
2022-08-29T22:34:17.398Z,2.67
2022-08-29T22:38:19.498Z,2.80
2022-08-29T22:42:22.322Z,2.83
2022-08-29T22:46:25.217Z,2.05
2022-08-29T22:50:27.314Z,2.85
2022-08-29T22:54:35.226Z,2.38
2022-08-29T22:58:38.170Z,2.50
2022-08-29T23:02:44.142Z,3.03
2022-08-29T23:06:49.331Z,2.70
2022-08-29T23:10:52.196Z,2.60
2022-08-29T23:14:54.363Z,3.00
2022-08-29T23:18:57.499Z,2.80
2022-08-29T23:22:59.870Z,2.83
2022-08-29T23:27:03.067Z,2.75
2022-08-29T23:31:05.300Z,3.13
2022-08-29T23:35:08.157Z,2.95
2022-08-29T23:39:10.300Z,2.63
2022-08-29T23:43:12.517Z,3.33
2022-08-29T23:47:14.680Z,2.90
2022-08-29T23:51:17.186Z,2.83
2022-08-29T23:55:19.371Z,3.25
2022-08-29T23:59:40.542Z,3.35
